createdAt,value
2018-09-09T09:56:19.343Z,8.30
2018-09-09T09:58:47.693Z,8.67
2018-09-09T10:01:16.103Z,9.77
2018-09-09T10:03:44.551Z,6.27
2018-09-09T10:06:13.009Z,6.50
2018-09-09T10:08:41.544Z,7.97
2018-09-09T10:11:09.980Z,5.90
2018-09-09T10:13:38.398Z,6.00
2018-09-09T10:16:07.447Z,8.87
2018-09-09T10:18:35.926Z,11.27
2018-09-09T10:21:04.485Z,6.93
2018-09-09T10:23:32.859Z,8.40
2018-09-09T10:26:01.360Z,5.80
2018-09-09T10:28:29.790Z,5.00
2018-09-09T10:30:58.264Z,5.80
2018-09-09T10:33:29.266Z,6.43
2018-09-09T10:35:57.624Z,5.77
2018-09-09T10:38:26.127Z,7.57
2018-09-09T10:40:54.538Z,6.33
2018-09-09T10:43:23.323Z,6.53
2018-09-09T10:45:51.933Z,6.23
2018-09-09T10:48:21.279Z,7.40
2018-09-09T10:50:49.656Z,8.30
2018-09-09T10:53:18.321Z,7.50
2018-09-09T10:55:46.708Z,8.17
2018-09-09T10:58:15.112Z,7.53
2018-09-09T11:00:43.628Z,6.57
2018-09-09T11:03:12.147Z,8.60
2018-09-09T11:05:40.778Z,6.93
2018-09-09T11:08:13.410Z,3.57
2018-09-09T11:10:41.953Z,4.67
2018-09-09T11:13:10.345Z,5.90
2018-09-09T11:15:38.875Z,5.47
2018-09-09T11:18:07.733Z,7.10
2018-09-09T11:20:36.247Z,8.37
2018-09-09T11:23:04.671Z,5.67
2018-09-09T11:25:33.400Z,3.83
2018-09-09T11:28:01.869Z,6.33
2018-09-09T11:30:30.338Z,11.57
2018-09-09T11:32:59.223Z,5.67
2018-09-09T11:35:27.679Z,3.60
2018-09-09T11:37:56.437Z,3.30
2018-09-09T11:40:24.901Z,8.17
2018-09-09T11:42:53.262Z,4.13
2018-09-09T11:45:21.674Z,4.60
2018-09-09T11:47:50.132Z,6.30
2018-09-09T11:50:18.482Z,6.17
2018-09-09T11:52:47.815Z,5.07
2018-09-09T11:55:16.169Z,4.43
2018-09-09T11:57:44.529Z,5.27
2018-09-09T12:00:12.869Z,4.30
2018-09-09T12:02:41.226Z,6.37
2018-09-09T12:05:09.543Z,4.00
2018-09-09T12:07:37.895Z,3.93
2018-09-09T12:10:06.595Z,4.53
2018-09-09T12:12:39.244Z,8.83
2018-09-09T12:15:07.691Z,5.27
2018-09-09T12:17:36.049Z,7.03
2018-09-09T12:20:04.454Z,5.07
2018-09-09T12:22:33.507Z,5.20
2018-09-09T12:25:02.932Z,4.70
2018-09-09T12:27:31.488Z,3.50
2018-09-09T12:30:00.165Z,5.97
2018-09-09T12:32:28.521Z,7.00
2018-09-09T12:34:56.961Z,5.37
2018-09-09T12:37:25.589Z,5.83
2018-09-09T12:39:53.988Z,7.70
2018-09-09T12:42:22.290Z,7.13
2018-09-09T12:44:56.019Z,5.40
2018-09-09T12:47:29.542Z,4.23
2018-09-09T12:49:57.978Z,7.50
2018-09-09T12:52:26.298Z,5.90
2018-09-09T12:54:54.685Z,5.93
2018-09-09T12:57:23.023Z,3.37
2018-09-09T12:59:51.397Z,3.73
2018-09-09T13:02:19.772Z,5.30
2018-09-09T13:04:48.214Z,3.77
2018-09-09T13:07:16.864Z,3.43
2018-09-09T13:09:45.203Z,4.47
2018-09-09T13:12:13.683Z,3.27
2018-09-09T13:14:42.032Z,3.67
2018-09-09T13:17:10.507Z,6.07
2018-09-09T13:19:38.866Z,4.30
2018-09-09T13:22:07.323Z,2.90
2018-09-09T13:24:35.706Z,4.17
2018-09-09T13:27:05.104Z,3.87
2018-09-09T13:29:34.406Z,3.47
2018-09-09T13:32:03.553Z,4.83
2018-09-09T13:34:31.982Z,6.13
2018-09-09T13:37:01.135Z,3.97
2018-09-09T13:39:29.916Z,3.47
2018-09-09T13:41:58.319Z,4.13
2018-09-09T13:44:27.948Z,5.27
2018-09-09T13:46:56.554Z,2.80
2018-09-09T13:49:25.081Z,3.83
2018-09-09T13:51:53.836Z,4.37
2018-09-09T13:54:22.301Z,2.57
2018-09-09T13:56:50.739Z,4.60
2018-09-09T13:59:19.576Z,7.83
2018-09-09T14:01:48.011Z,7.50
2018-09-09T14:04:16.563Z,3.07
2018-09-09T14:06:44.989Z,8.03
2018-09-09T14:09:13.582Z,8.80
2018-09-09T14:11:42.062Z,5.80
2018-09-09T14:14:10.782Z,4.13
2018-09-09T14:16:39.137Z,4.70
2018-09-09T14:19:07.585Z,3.40
2018-09-09T14:21:36.519Z,5.33
2018-09-09T14:24:05.535Z,7.27
2018-09-09T14:26:34.059Z,8.00
2018-09-09T14:29:02.420Z,2.23
2018-09-09T14:31:30.769Z,2.13
2018-09-09T14:33:59.456Z,3.57
2018-09-09T14:36:28.670Z,6.63
2018-09-09T14:38:57.019Z,4.63
2018-09-09T14:41:25.971Z,2.30
2018-09-09T14:43:54.383Z,2.73
2018-09-09T14:46:23.553Z,1.53
2018-09-09T14:48:51.964Z,2.37
2018-09-09T14:51:20.449Z,3.97
2018-09-09T14:53:48.967Z,3.40
2018-09-09T14:56:17.407Z,5.80
2018-09-09T14:58:45.849Z,4.37
2018-09-09T15:01:14.321Z,2.23
2018-09-09T15:03:42.739Z,2.93
2018-09-09T15:06:11.180Z,2.93
2018-09-09T15:08:39.522Z,2.70
2018-09-09T15:11:08.442Z,5.87
2018-09-09T15:13:37.725Z,3.97
2018-09-09T15:16:06.433Z,4.37
2018-09-09T15:18:34.789Z,4.83
2018-09-09T15:21:03.863Z,4.27
2018-09-09T15:23:32.259Z,2.63
2018-09-09T15:26:00.627Z,4.97
2018-09-09T15:28:29.173Z,6.37
2018-09-09T15:30:57.598Z,3.10
2018-09-09T15:33:26.053Z,2.40
2018-09-09T15:35:54.510Z,3.30
2018-09-09T15:38:22.849Z,3.60
2018-09-09T15:40:51.281Z,3.70
2018-09-09T15:43:19.600Z,5.63
2018-09-09T15:45:48.816Z,3.70
2018-09-09T15:48:17.247Z,2.97
2018-09-09T15:50:46.592Z,3.63
2018-09-09T15:53:14.995Z,3.87
2018-09-09T15:55:43.308Z,9.17
2018-09-09T15:58:11.619Z,3.77
2018-09-09T16:00:39.943Z,3.83
2018-09-09T16:03:08.980Z,3.83
2018-09-09T16:05:37.513Z,3.60
2018-09-09T16:08:06.506Z,3.40
2018-09-09T16:10:35.486Z,3.57
2018-09-09T16:13:04.038Z,5.53
2018-09-09T16:15:32.531Z,7.10
2018-09-09T16:18:01.835Z,4.53
2018-09-09T16:20:30.325Z,7.00
2018-09-09T16:22:58.954Z,4.73
2018-09-09T16:25:27.505Z,4.30
2018-09-09T16:27:56.298Z,5.33
2018-09-09T16:30:25.201Z,3.13
2018-09-09T16:32:53.731Z,5.73
2018-09-09T16:35:22.090Z,3.47
2018-09-09T16:37:50.966Z,2.87
2018-09-09T16:40:19.508Z,3.43
2018-09-09T16:42:47.862Z,2.27
2018-09-09T16:45:16.267Z,3.37
2018-09-09T16:47:44.639Z,4.67
2018-09-09T16:50:13.093Z,5.43
2018-09-09T16:52:41.521Z,2.43
2018-09-09T16:55:09.918Z,3.47
2018-09-09T16:57:38.378Z,3.77
2018-09-09T17:00:07.366Z,3.07
2018-09-09T17:02:35.845Z,3.13
2018-09-09T17:05:04.295Z,2.70
2018-09-09T17:07:32.775Z,2.93
2018-09-09T17:10:01.370Z,2.47
2018-09-09T17:12:29.734Z,5.20
2018-09-09T17:14:58.132Z,3.33
2018-09-09T17:17:26.700Z,4.27
2018-09-09T17:19:55.184Z,4.80
2018-09-09T17:22:23.709Z,2.27
2018-09-09T17:24:54.435Z,2.10
2018-09-09T17:30:10.463Z,3.37
2018-09-09T17:32:40.324Z,3.30
2018-09-09T17:35:11.178Z,4.13
2018-09-09T17:37:39.865Z,4.43
2018-09-09T17:40:08.301Z,2.70
2018-09-09T17:42:37.805Z,2.27
2018-09-09T17:45:07.465Z,3.00
2018-09-09T17:47:38.727Z,4.33
2018-09-09T17:50:08.322Z,3.17
2018-09-09T17:52:38.008Z,2.43
2018-09-09T17:55:07.954Z,3.63
2018-09-09T17:57:37.008Z,3.90
2018-09-09T18:00:10.198Z,3.87
2018-09-09T18:02:38.670Z,3.00
2018-09-09T18:05:07.471Z,4.30
2018-09-09T18:07:35.921Z,2.67
2018-09-09T18:10:05.434Z,4.07
2018-09-09T18:12:34.171Z,3.37
2018-09-09T18:15:04.157Z,4.30
2018-09-09T18:17:33.691Z,4.77
2018-09-09T18:20:02.620Z,3.27
2018-09-09T18:22:31.019Z,3.97
2018-09-09T18:24:59.462Z,7.03
2018-09-09T18:27:28.271Z,4.67
2018-09-09T18:29:56.989Z,2.97
2018-09-09T18:32:26.492Z,4.20
2018-09-09T18:34:55.144Z,4.20
2018-09-09T18:37:23.573Z,5.53
2018-09-09T18:39:52.053Z,3.27
2018-09-09T18:42:20.474Z,2.33
2018-09-09T18:44:49.093Z,4.83
2018-09-09T18:47:17.558Z,4.33
2018-09-09T18:49:46.085Z,3.53
2018-09-09T18:52:14.546Z,2.90
2018-09-09T18:54:43.457Z,2.27
2018-09-09T18:57:12.685Z,4.00
2018-09-09T18:59:41.732Z,3.47
2018-09-09T19:02:10.615Z,5.13
2018-09-09T19:04:39.285Z,2.47
2018-09-09T19:07:07.970Z,5.10
2018-09-09T19:09:37.020Z,4.73
2018-09-09T19:12:05.888Z,5.70
2018-09-09T19:14:38.437Z,2.90
2018-09-09T19:17:11.207Z,3.80
2018-09-09T19:19:44.353Z,4.67
2018-09-09T19:22:14.048Z,4.20
2018-09-09T19:24:42.847Z,6.60
2018-09-09T19:29:56.402Z,4.23
2018-09-09T19:32:27.948Z,2.93
2018-09-09T19:35:01.848Z,4.63
2018-09-09T19:37:38.368Z,4.70
2018-09-09T19:40:07.531Z,4.70
2018-09-09T19:42:48.382Z,3.97
2018-09-09T19:50:41.316Z,3.10
2018-09-09T19:53:15.569Z,3.17
2018-09-09T19:58:16.243Z,2.77
2018-09-09T20:00:44.625Z,3.57
2018-09-09T20:03:13.025Z,3.20
2018-09-09T20:05:41.421Z,5.80
2018-09-09T20:08:09.861Z,3.20
2018-09-09T20:10:38.782Z,7.17
2018-09-09T20:13:07.310Z,5.57
2018-09-09T20:15:35.652Z,4.03
2018-09-09T20:18:04.631Z,4.60
2018-09-09T20:20:33.029Z,4.57
2018-09-09T20:23:01.423Z,3.00
2018-09-09T20:25:29.756Z,7.30
2018-09-09T20:27:58.042Z,4.27
2018-09-09T20:30:26.504Z,4.37
2018-09-09T20:32:54.922Z,7.60
2018-09-09T20:35:23.233Z,3.73
2018-09-09T20:37:51.569Z,4.00
2018-09-09T20:40:19.934Z,5.07
2018-09-09T20:42:49.367Z,5.10
2018-09-09T20:45:18.180Z,5.23
2018-09-09T20:47:46.570Z,5.60
2018-09-09T20:50:15.162Z,11.50
2018-09-09T20:52:44.010Z,6.40
2018-09-09T20:55:12.370Z,8.63
2018-09-09T20:57:40.786Z,10.77
2018-09-09T21:00:09.296Z,9.53
2018-09-09T21:02:37.849Z,11.37
2018-09-09T21:05:06.499Z,8.93
2018-09-09T21:07:34.966Z,12.33
2018-09-09T21:10:03.497Z,9.70
2018-09-09T21:12:31.924Z,11.77
2018-09-09T21:15:04.200Z,11.67
2018-09-09T21:17:32.842Z,9.53
2018-09-09T21:20:01.244Z,12.07
2018-09-09T21:22:29.993Z,11.03
2018-09-09T21:24:59.721Z,10.93
2018-09-09T21:27:28.741Z,10.13
2018-09-09T21:29:57.168Z,11.33
2018-09-09T21:32:25.603Z,17.90
2018-09-09T21:34:54.076Z,16.83
2018-09-09T21:37:22.414Z,17.97
2018-09-09T21:39:50.811Z,15.03
2018-09-09T21:42:19.900Z,12.67
2018-09-09T21:44:48.437Z,14.50
2018-09-09T21:47:16.838Z,13.67
2018-09-09T21:49:45.242Z,14.03
2018-09-09T21:52:13.705Z,15.13
2018-09-09T21:54:42.072Z,17.50
2018-09-09T21:57:10.364Z,11.67
2018-09-09T21:59:38.730Z,13.23
2018-09-09T22:02:09.002Z,14.60
2018-09-09T22:04:38.140Z,17.67
2018-09-09T22:07:10.215Z,16.13
2018-09-09T22:09:39.146Z,18.87
2018-09-09T22:12:09.014Z,21.20
2018-09-09T22:14:37.528Z,17.30
2018-09-09T22:17:06.130Z,17.13
2018-09-09T22:19:34.475Z,17.60
2018-09-09T22:22:03.600Z,18.93
2018-09-09T22:24:31.964Z,20.93
2018-09-09T22:27:00.358Z,20.33
2018-09-09T22:29:28.893Z,14.17
2018-09-09T22:31:57.425Z,12.77
2018-09-09T22:34:25.875Z,20.93
2018-09-09T22:36:54.264Z,18.20
2018-09-09T22:39:22.707Z,15.23
2018-09-09T22:41:51.024Z,13.33
2018-09-09T22:44:19.386Z,16.70
2018-09-09T22:46:47.707Z,13.60
2018-09-09T22:49:16.036Z,18.57
2018-09-09T22:51:44.506Z,13.83
2018-09-09T22:54:12.905Z,16.27
2018-09-09T22:56:41.389Z,16.83
2018-09-09T22:59:09.860Z,15.63
2018-09-09T23:01:38.358Z,19.80
2018-09-09T23:04:06.686Z,12.07
2018-09-09T23:06:35.052Z,17.57
2018-09-09T23:09:05.379Z,14.80
2018-09-09T23:11:33.785Z,16.80
2018-09-09T23:14:02.129Z,12.17
2018-09-09T23:16:30.545Z,15.37
2018-09-09T23:18:58.847Z,14.23
2018-09-09T23:21:27.468Z,11.23
2018-09-09T23:23:55.878Z,11.47
2018-09-09T23:26:24.282Z,14.30
2018-09-09T23:28:52.878Z,11.67
2018-09-09T23:31:21.273Z,16.63
2018-09-09T23:33:49.674Z,13.07
2018-09-09T23:36:18.043Z,11.77
2018-09-09T23:38:46.420Z,13.77
2018-09-09T23:41:14.736Z,11.20
2018-09-09T23:43:43.072Z,13.37
2018-09-09T23:46:11.401Z,13.67
2018-09-09T23:48:39.723Z,12.00
2018-09-09T23:51:08.589Z,12.03
2018-09-09T23:53:36.945Z,15.77
2018-09-09T23:56:05.377Z,11.07
2018-09-09T23:58:33.810Z,12.40
